Time;durP1;ratioP1;P1;durP2;ratioP2;P2;SDS_P1;SDS_P2;PMS_P1;PMS_P2;Temp;Humidity;BMP_temperature;BMP_pressure;BME280_temperature;BME280_humidity;BME280_pressure;Samples;Min_cycle;Max_cycle;Signal;HPM_P1;HPM_P2
2022/10/16 00:00:43;;;;;;;26.90;17.03;;;;;;;13.53;100.00;100342.25;3688945;78;99300;-88
2022/10/16 00:05:44;;;;;;;31.50;18.55;;;;;;;13.50;100.00;100338.11;3678864;80;33079;-88
2022/10/16 00:10:45;;;;;;;32.83;20.02;;;;;;;13.44;100.00;100318.39;3618649;80;99145;-88
2022/10/16 00:15:46;;;;;;;30.47;19.30;;;;;;;13.43;100.00;100316.02;3623363;81;28711;-88
2022/10/16 00:20:47;;;;;;;26.00;17.02;;;;;;;13.42;100.00;100320.75;3621222;80;98959;-88
2022/10/16 00:26:01;;;;;;;30.37;18.83;;;;;;;13.42;100.00;100323.52;3628644;80;25979;-88
2022/10/16 00:31:11;;;;;;;30.13;19.47;;;;;;;13.43;100.00;100325.11;3632937;80;98880;-89
2022/10/16 00:36:15;;;;;;;28.30;17.62;;;;;;;13.47;100.00;100341.69;3570617;80;99261;-88
2022/10/16 00:41:17;;;;;;;25.95;16.27;;;;;;;13.47;100.00;100341.69;3604545;80;32499;-88
2022/10/16 00:46:26;;;;;;;27.65;17.95;;;;;;;13.45;100.00;100327.45;3610058;79;99603;-88
2022/10/16 00:51:35;;;;;;;24.82;16.12;;;;;;;13.51;100.00;100336.34;3607248;80;33069;-88
2022/10/16 00:56:37;;;;;;;27.62;17.42;;;;;;;13.44;100.00;100313.44;3614432;80;99063;-88
2022/10/16 01:01:38;;;;;;;26.35;16.87;;;;;;;13.58;100.00;100329.40;3628557;80;32698;-88
2022/10/16 01:06:53;;;;;;;24.13;15.20;;;;;;;13.60;100.00;100332.57;3618260;80;99016;-88
2022/10/16 01:12:14;;;;;;;23.77;14.60;;;;;;;13.66;100.00;100346.77;3675035;80;33223;-88
2022/10/16 01:17:23;;;;;;;24.23;15.58;;;;;;;13.68;100.00;100339.65;3658167;80;98860;-88
2022/10/16 01:22:29;;;;;;;24.20;15.43;;;;;;;13.71;100.00;100344.97;3685585;80;32506;-88
2022/10/16 01:27:34;;;;;;;23.20;13.78;;;;;;;13.74;100.00;100340.05;3685991;80;99093;-89
2022/10/16 01:32:49;;;;;;;21.85;14.05;;;;;;;13.77;100.00;100335.08;3681600;80;32406;-88
2022/10/16 01:38:16;;;;;;;23.65;15.08;;;;;;;13.78;100.00;100339.41;3676536;80;99297;-87
2022/10/16 01:43:22;;;;;;;22.58;13.88;;;;;;;13.81;100.00;100354.64;3641505;80;32753;-88
2022/10/16 01:48:23;;;;;;;;;;;;;;;13.84;100.00;100346.91;3675395;80;99422;-88
2022/10/16 01:53:26;;;;;;;22.50;14.07;;;;;;;13.88;100.00;100351.84;3674936;80;30671;-88
2022/10/16 01:58:33;;;;;;;21.50;13.70;;;;;;;13.90;100.00;100366.05;3659547;80;99027;-89
2022/10/16 02:03:34;;;;;;;20.30;13.63;;;;;;;13.94;100.00;100359.12;3670704;80;26475;-88
2022/10/16 02:08:36;;;;;;;19.52;13.58;;;;;;;13.98;100.00;100348.25;3648550;80;99236;-87
2022/10/16 02:13:53;;;;;;;21.25;13.58;;;;;;;13.86;100.00;100329.91;3653674;80;32508;-87
2022/10/16 02:18:54;;;;;;;18.98;13.60;;;;;;;14.10;100.00;100357.48;3617377;80;99754;-87
2022/10/16 02:24:44;;;;;;;20.33;13.43;;;;;;;14.18;100.00;100364.55;3675600;80;30534;-85
2022/10/16 02:29:50;;;;;;;20.57;12.65;;;;;;;14.26;100.00;100373.64;3654802;80;99046;-88
2022/10/16 02:34:52;;;;;;;19.20;12.33;;;;;;;14.35;100.00;100356.02;3684965;80;27386;-87
2022/10/16 02:39:55;;;;;;;18.07;11.73;;;;;;;14.42;100.00;100354.58;3669209;79;98821;-85
2022/10/16 02:44:55;;;;;;;19.52;12.15;;;;;;;14.46;100.00;100355.35;3693342;80;32697;-87
2022/10/16 02:49:56;;;;;;;20.23;12.70;;;;;;;14.49;100.00;100352.56;3675777;80;99104;-86
2022/10/16 02:54:57;;;;;;;18.73;11.87;;;;;;;14.53;100.00;100364.41;3664168;79;28040;-87
2022/10/16 02:59:58;;;;;;;20.03;13.07;;;;;;;14.54;100.00;100358.27;3661910;80;99237;-88
2022/10/16 03:04:59;;;;;;;19.30;12.33;;;;;;;14.56;100.00;100367.74;3678369;80;26351;-86
2022/10/16 03:10:00;;;;;;;18.73;12.77;;;;;;;14.56;100.00;100363.59;3628488;80;99149;-86
2022/10/16 03:15:01;;;;;;;19.80;13.23;;;;;;;14.58;100.00;100362.61;3606088;81;25854;-87
2022/10/16 03:20:03;;;;;;;19.90;12.83;;;;;;;14.58;100.00;100372.30;3629243;79;98873;-86
2022/10/16 03:25:05;;;;;;;21.27;13.57;;;;;;;14.61;100.00;100368.70;3623113;79;27026;-87
2022/10/16 03:30:07;;;;;;;23.03;15.60;;;;;;;14.62;100.00;100370.89;3606244;81;98854;-87
2022/10/16 03:35:08;;;;;;;21.50;13.27;;;;;;;14.63;100.00;100382.95;3638132;81;25949;-87
2022/10/16 03:40:10;;;;;;;22.03;13.97;;;;;;;14.63;100.00;100391.27;3628769;79;98794;-87
2022/10/16 03:45:12;;;;;;;21.70;14.67;;;;;;;14.64;100.00;100390.65;3638686;81;28347;-87
2022/10/16 03:50:12;;;;;;;22.80;14.70;;;;;;;14.63;100.00;100381.57;3633211;79;98845;-87
2022/10/16 03:55:13;;;;;;;22.80;14.80;;;;;;;14.64;100.00;100396.98;3642808;81;26683;-87
2022/10/16 04:00:14;;;;;;;22.77;15.10;;;;;;;14.65;100.00;100398.56;3625904;79;99219;-87
2022/10/16 04:05:15;;;;;;;23.63;15.63;;;;;;;14.66;100.00;100397.98;3624279;81;25836;-86
2022/10/16 04:10:16;;;;;;;22.15;13.72;;;;;;;14.68;100.00;100403.89;3582264;80;98904;-88
2022/10/16 04:15:17;;;;;;;21.40;13.63;;;;;;;14.70;100.00;100414.76;3628306;80;25822;-88
2022/10/16 04:20:18;;;;;;;23.50;14.10;;;;;;;14.73;100.00;100407.63;3607711;80;99204;-87
2022/10/16 04:25:19;;;;;;;23.73;14.40;;;;;;;14.74;100.00;100414.15;3617133;80;25954;-86
2022/10/16 04:30:21;;;;;;;21.93;14.58;;;;;;;14.76;100.00;100420.64;3589066;79;99140;-87
2022/10/16 04:35:22;;;;;;;25.05;16.52;;;;;;;14.77;100.00;100423.63;3624980;81;26353;-86
2022/10/16 04:40:23;;;;;;;24.00;14.47;;;;;;;14.75;100.00;100429.57;3618351;80;99082;-86
2022/10/16 04:45:24;;;;;;;22.50;14.07;;;;;;;14.77;100.00;100438.25;3590924;80;33389;-87
2022/10/16 04:50:25;;;;;;;23.57;14.20;;;;;;;14.79;100.00;100436.47;3594757;81;99083;-87
2022/10/16 04:55:26;;;;;;;22.63;15.43;;;;;;;14.79;100.00;100442.81;3627434;80;33412;-86
2022/10/16 05:00:27;;;;;;;22.87;14.97;;;;;;;14.81;100.00;100449.31;3599962;79;99324;-87
2022/10/16 05:05:28;;;;;;;22.20;14.80;;;;;;;14.81;100.00;100450.70;3614809;80;33369;-87
2022/10/16 05:10:29;;;;;;;24.47;16.13;;;;;;;14.81;100.00;100439.03;3625467;80;98793;-86
2022/10/16 05:15:29;;;;;;;22.90;14.70;;;;;;;14.83;100.00;100433.87;3686994;80;33376;-87
2022/10/16 05:20:30;;;;;;;22.62;14.80;;;;;;;14.84;100.00;100442.98;3676805;80;99006;-84
2022/10/16 05:25:31;;;;;;;25.80;17.03;;;;;;;14.82;100.00;100447.53;3674234;80;31737;-86
2022/10/16 05:30:32;;;;;;;22.87;14.57;;;;;;;14.82;100.00;100464.16;3678692;79;99221;-86
2022/10/16 05:35:34;;;;;;;23.15;14.20;;;;;;;14.83;100.00;100460.80;3673482;80;31558;-87
2022/10/16 05:40:35;;;;;;;21.87;13.53;;;;;;;14.85;100.00;100453.66;3685277;80;99287;-86
2022/10/16 05:45:35;;;;;;;23.17;15.73;;;;;;;14.86;100.00;100455.82;3693347;80;31683;-86
2022/10/16 05:50:36;;;;;;;22.93;14.97;;;;;;;14.87;100.00;100464.35;3675210;80;98914;-86
2022/10/16 05:55:37;;;;;;;24.80;15.27;;;;;;;14.86;100.00;100460.77;3688638;80;31643;-85
2022/10/16 06:00:39;;;;;;;21.43;15.00;;;;;;;14.85;100.00;100467.52;3651881;80;99057;-86
2022/10/16 06:05:43;;;;;;;21.57;15.10;;;;;;;14.83;100.00;100472.66;3683706;80;31889;-86
2022/10/16 06:10:57;;;;;;;21.07;14.68;;;;;;;14.84;100.00;100463.76;3682439;80;99528;-87
2022/10/16 06:16:01;;;;;;;19.77;13.53;;;;;;;14.81;100.00;100468.13;3674238;80;33462;-86
2022/10/16 06:21:10;;;;;;;23.57;15.33;;;;;;;14.79;100.00;100474.68;3650743;80;98781;-88
2022/10/16 06:26:16;;;;;;;22.27;14.83;;;;;;;14.78;100.00;100485.55;3665590;80;99160;-87
2022/10/16 06:31:17;;;;;;;;;;;;;;;14.77;100.00;100485.97;3674213;80;26547;-86
2022/10/16 06:36:31;;;;;;;23.30;14.97;;;;;;;14.77;100.00;100489.52;3657364;80;85328;-88
2022/10/16 06:41:32;;;;;;;21.52;14.53;;;;;;;14.77;100.00;100489.52;3661820;80;32920;-87
2022/10/16 06:46:35;;;;;;;21.12;13.48;;;;;;;14.78;100.00;100504.17;3678397;80;99501;-87
2022/10/16 06:51:40;;;;;;;23.55;14.83;;;;;;;14.80;100.00;100518.40;3670309;80;32905;-86
2022/10/16 06:56:46;;;;;;;24.98;15.60;;;;;;;14.84;100.00;100539.96;3659218;80;99301;-84
2022/10/16 07:01:50;;;;;;;23.67;16.42;;;;;;;14.93;100.00;100543.87;3656891;80;32941;-87
2022/10/16 07:06:51;;;;;;;21.20;14.95;;;;;;;15.05;100.00;100555.11;3653583;80;99169;-88
2022/10/16 07:11:53;;;;;;;25.40;14.97;;;;;;;15.17;100.00;100550.48;3679812;80;31675;-88
2022/10/16 07:16:58;;;;;;;22.67;15.67;;;;;;;15.28;100.00;100560.33;3676757;80;99489;-88
2022/10/16 07:21:59;;;;;;;22.48;14.75;;;;;;;15.39;100.00;100563.86;3674874;80;26413;-86
2022/10/16 07:27:07;;;;;;;24.10;15.13;;;;;;;15.51;100.00;100558.41;3659858;80;99144;-89
2022/10/16 07:32:17;;;;;;;21.90;14.68;;;;;;;15.62;100.00;100566.86;3642021;78;32971;-88
2022/10/16 07:37:24;;;;;;;19.67;13.93;;;;;;;15.71;100.00;100549.17;3667938;80;99172;-86
2022/10/16 07:42:28;;;;;;;21.75;14.18;;;;;;;15.80;100.00;100551.47;3686767;80;32950;-88
2022/10/16 07:47:29;;;;;;;20.90;14.83;;;;;;;15.93;100.00;100543.62;3667672;80;99322;-90
2022/10/16 07:52:33;;;;;;;18.70;13.13;;;;;;;16.01;100.00;100553.45;3689190;80;26006;-88
2022/10/16 07:57:34;;;;;;;19.53;14.50;;;;;;;16.17;100.00;100570.37;3670307;78;99413;-88
2022/10/16 08:02:37;;;;;;;18.67;13.53;;;;;;;16.30;100.00;100578.36;3642719;80;25970;-88
2022/10/16 08:07:39;;;;;;;18.75;12.82;;;;;;;16.40;100.00;100586.45;3662403;80;99178;-86
2022/10/16 08:12:40;;;;;;;17.15;12.43;;;;;;;16.50;100.00;100591.89;3658535;80;32989;-89
2022/10/16 08:17:41;;;;;;;20.33;13.87;;;;;;;16.59;100.00;100592.20;3577148;79;98983;-89
2022/10/16 08:22:42;;;;;;;18.07;12.43;;;;;;;16.67;100.00;100590.91;3621095;79;31777;-86
2022/10/16 08:27:44;;;;;;;19.40;13.97;;;;;;;16.79;100.00;100599.33;3622373;79;99521;-90
2022/10/16 08:32:47;;;;;;;15.90;11.87;;;;;;;16.88;100.00;100591.26;3633799;81;26376;-87
2022/10/16 08:37:48;;;;;;;19.62;13.18;;;;;;;16.88;100.00;100586.50;3586435;79;99127;-90
2022/10/16 08:43:29;;;;;;;17.03;11.40;;;;;;;17.01;100.00;100608.99;3630449;79;26551;-89
2022/10/16 08:48:49;;;;;;;15.13;11.45;;;;;;;17.13;100.00;100609.24;3612688;79;99421;-88
2022/10/16 08:54:01;;;;;;;18.67;13.18;;;;;;;17.35;100.00;100611.93;3637570;81;32950;-88
2022/10/16 08:59:06;;;;;;;18.23;11.70;;;;;;;17.59;100.00;100612.80;3622102;79;99511;-87
2022/10/16 09:10:23;;;;;;;14.35;10.45;;;;;;;17.87;100.00;100627.09;3635601;81;98935;-88
2022/10/16 09:16:22;;;;;;;15.35;10.48;;;;;;;18.00;99.71;100623.12;3661395;80;33005;-89
2022/10/16 09:21:52;;;;;;;15.93;11.08;;;;;;;18.16;99.72;100628.20;3672909;80;32977;-89
2022/10/16 09:26:53;;;;;;;16.12;11.40;;;;;;;18.49;99.29;100618.12;3664768;79;98790;-89
2022/10/16 09:31:57;;;;;;;15.47;11.07;;;;;;;18.80;98.35;100623.72;3674994;80;26677;-89
2022/10/16 09:37:06;;;;;;;16.15;10.03;;;;;;;18.94;96.57;100638.17;3656691;80;98891;-88
2022/10/16 09:42:07;;;;;;;19.62;9.78;;;;;;;19.31;96.67;100631.47;3648061;80;32983;-88
2022/10/16 09:47:29;;;;;;;12.13;8.33;;;;;;;19.70;94.74;100630.80;3652743;80;98743;-89
2022/10/16 09:52:35;;;;;;;11.78;7.20;;;;;;;19.86;93.18;100632.22;3572506;81;33499;-87
2022/10/16 09:57:36;;;;;;;12.58;7.12;;;;;;;19.90;92.35;100648.27;3632971;79;99344;-87
2022/10/16 10:02:39;;;;;;;10.70;6.23;;;;;;;20.02;92.40;100655.19;3644674;80;30686;-88
2022/10/16 10:07:45;;;;;;;12.93;6.67;;;;;;;20.15;91.41;100649.90;3640642;80;33031;-88
2022/10/16 10:12:46;;;;;;;10.32;6.60;;;;;;;20.17;90.32;100651.64;3643970;78;32977;-88
2022/10/16 10:17:53;;;;;;;11.40;6.60;;;;;;;20.19;90.51;100645.02;3638640;79;98929;-86
2022/10/16 10:22:56;;;;;;;11.53;6.62;;;;;;;20.32;90.66;100646.51;3650818;79;33888;-89
2022/10/16 10:28:15;;;;;;;10.82;6.35;;;;;;;20.68;89.44;100654.94;3645396;78;98821;-91
2022/10/16 10:33:50;;;;;;;11.08;6.28;;;;;;;20.74;87.60;100652.38;3635776;79;32949;-86
2022/10/16 10:38:59;;;;;;;8.95;5.37;;;;;;;20.77;87.49;100650.11;3630082;79;98900;-86
2022/10/16 10:44:05;;;;;;;10.32;6.75;;;;;;;20.75;85.91;100649.14;3628027;81;33009;-86
2022/10/16 10:49:53;;;;;;;12.60;7.08;;;;;;;20.72;85.98;100646.44;3620589;79;98623;-89
2022/10/16 10:55:05;;;;;;;11.73;7.35;;;;;;;20.70;85.68;100658.70;3624361;81;33235;-88
2022/10/16 11:00:30;;;;;;;11.25;7.22;;;;;;;20.57;85.49;100657.22;3492142;82;98842;-90
2022/10/16 11:05:40;;;;;;;11.68;7.40;;;;;;;20.66;85.59;100656.59;3597697;81;33356;-86
2022/10/16 11:10:52;;;;;;;11.63;6.50;;;;;;;20.76;85.79;100639.52;3631683;79;98749;-87
2022/10/16 11:16:00;;;;;;;10.30;6.65;;;;;;;20.83;84.59;100650.54;3619792;79;32955;-85
2022/10/16 11:21:06;;;;;;;11.70;7.53;;;;;;;20.83;83.28;100656.73;3610055;80;98655;-87
2022/10/16 11:26:13;;;;;;;10.90;6.70;;;;;;;20.84;83.71;100654.10;3624018;79;99023;-87
2022/10/16 11:31:19;;;;;;;9.58;6.17;;;;;;;20.89;83.82;100641.81;3512058;83;32950;-88
2022/10/16 11:36:31;;;;;;;9.03;6.20;;;;;;;21.03;83.64;100640.00;3500513;82;98946;-85
2022/10/16 11:41:49;;;;;;;11.25;6.90;;;;;;;21.12;83.29;100640.15;3574048;81;33068;-90
2022/10/16 11:47:02;;;;;;;9.68;5.65;;;;;;;21.21;82.75;100648.66;3620228;79;99282;-88
2022/10/16 11:52:17;;;;;;;8.80;5.30;;;;;;;21.30;82.71;100651.61;3608550;79;27191;-86
2022/10/16 11:57:25;;;;;;;12.03;5.27;;;;;;;21.40;82.62;100656.12;3632428;79;99076;-86
2022/10/16 12:02:46;;;;;;;9.20;4.90;;;;;;;21.55;82.38;100662.88;3636488;80;32983;-89
2022/10/16 12:07:52;;;;;;;6.65;4.17;;;;;;;21.49;80.23;100671.66;3479342;83;98591;-88
2022/10/16 12:12:53;;;;;;;8.25;5.10;;;;;;;21.45;80.24;100666.77;3509016;82;32942;-87
2022/10/16 12:17:56;;;;;;;7.07;4.30;;;;;;;21.35;79.81;100656.67;3627278;79;98642;-87
2022/10/16 12:23:02;;;;;;;8.40;4.55;;;;;;;21.35;79.74;100667.87;3644703;81;33069;-88
2022/10/16 12:28:17;;;;;;;9.40;4.20;;;;;;;21.43;79.56;100658.05;3634316;80;98564;-88
2022/10/16 12:33:33;;;;;;;9.23;5.03;;;;;;;21.43;79.31;100660.05;3630355;81;25905;-87
2022/10/16 12:38:47;;;;;;;7.83;4.80;;;;;;;21.40;79.07;100669.33;3627575;80;98804;-88
2022/10/16 12:43:48;;;;;;;7.65;3.90;;;;;;;21.45;78.90;100684.98;3642220;81;33792;-87
2022/10/16 12:48:50;;;;;;;5.30;3.80;;;;;;;21.39;78.46;100683.16;3619246;81;98899;-87
2022/10/16 12:54:29;;;;;;;6.35;3.35;;;;;;;21.39;78.55;100679.76;3625463;81;33468;-88
2022/10/16 12:59:45;;;;;;;8.98;4.12;;;;;;;21.44;78.14;100675.02;3596695;81;98321;-87
2022/10/16 13:05:02;;;;;;;;;;;;;;;21.51;78.20;100683.80;3637271;80;26386;-87
2022/10/16 13:10:06;;;;;;;;;;;;;;;21.52;76.90;100684.77;3621826;80;84532;-86
2022/10/16 13:15:27;;;;;;;9.63;5.00;;;;;;;21.53;76.99;100684.92;3625185;79;26881;-87
2022/10/16 13:20:36;;;;;;;8.00;4.47;;;;;;;21.54;77.24;100696.93;3608451;80;98692;-87
2022/10/16 13:25:45;;;;;;;7.87;4.55;;;;;;;21.48;77.40;100695.28;3631945;79;32862;-87
2022/10/16 13:30:58;;;;;;;9.53;4.87;;;;;;;21.48;77.32;100695.28;3630020;79;98382;-85
2022/10/16 13:36:01;;;;;;;7.95;4.40;;;;;;;21.48;77.27;100705.08;3624404;81;32903;-87
2022/10/16 13:41:08;;;;;;;6.13;3.70;;;;;;;21.46;76.87;100715.95;3609768;80;98783;-85
2022/10/16 13:46:21;;;;;;;6.70;3.90;;;;;;;21.42;76.83;100720.09;3612805;81;98821;-86
2022/10/16 13:51:22;;;;;;;7.10;3.72;;;;;;;21.40;76.40;100722.53;3629842;79;32938;-86
2022/10/16 13:56:30;;;;;;;6.87;4.23;;;;;;;21.38;76.24;100731.40;3610345;80;98531;-85
2022/10/16 14:01:35;;;;;;;9.33;4.35;;;;;;;21.35;76.30;100735.67;3639604;79;33523;-86
2022/10/16 14:06:42;;;;;;;5.95;3.67;;;;;;;21.34;76.41;100748.91;3614005;80;98624;-86
2022/10/16 14:11:51;;;;;;;7.40;3.98;;;;;;;21.35;76.79;100756.07;3623587;79;32995;-87
2022/10/16 14:16:52;;;;;;;6.78;3.90;;;;;;;21.35;76.52;100762.27;3647368;80;98766;-85
2022/10/16 14:21:53;;;;;;;6.50;3.43;;;;;;;21.26;75.95;100763.54;3662393;80;33819;-86
2022/10/16 14:26:57;;;;;;;7.13;3.47;;;;;;;20.94;75.60;100740.61;3640029;80;98867;-87
2022/10/16 14:32:04;;;;;;;7.20;3.60;;;;;;;20.94;75.60;100740.61;3640116;80;33705;-86
2022/10/16 14:37:23;;;;;;;4.20;3.10;;;;;;;21.00;76.45;100761.23;3652782;80;98877;-86
2022/10/16 14:42:25;;;;;;;5.45;3.25;;;;;;;20.89;76.52;100764.92;3670302;80;34130;-87
2022/10/16 14:47:26;;;;;;;7.85;3.10;;;;;;;20.92;76.74;100779.41;3647954;80;98973;-87
2022/10/16 14:52:27;;;;;;;5.13;2.80;;;;;;;20.85;76.76;100789.36;3661550;80;30115;-86
2022/10/16 14:57:32;;;;;;;5.65;2.80;;;;;;;20.78;77.25;100787.35;3647412;80;98901;-87
2022/10/16 15:02:36;;;;;;;5.90;3.35;;;;;;;20.74;77.28;100786.64;3653955;80;33571;-87
2022/10/16 15:07:40;;;;;;;7.80;4.05;;;;;;;20.66;77.82;100790.85;3647400;80;99001;-87
2022/10/16 15:12:42;;;;;;;8.05;4.33;;;;;;;20.56;77.76;100790.48;3638840;80;33435;-87
2022/10/16 15:17:43;;;;;;;11.18;5.42;;;;;;;20.49;78.04;100796.26;3630888;79;98949;-87
2022/10/16 15:22:44;;;;;;;12.70;5.87;;;;;;;20.39;77.90;100798.06;3634693;79;29125;-85
2022/10/16 15:27:44;;;;;;;10.37;4.93;;;;;;;20.25;78.17;100807.38;3621018;80;98742;-84
2022/10/16 15:32:45;;;;;;;9.20;4.60;;;;;;;20.12;78.28;100803.06;3625463;80;27129;-85
2022/10/16 15:37:48;;;;;;;10.03;4.77;;;;;;;19.95;78.48;100802.03;3626235;79;98826;-85
2022/10/16 15:42:49;;;;;;;11.00;5.63;;;;;;;19.81;78.99;100805.91;3621898;79;27227;-85
2022/10/16 15:47:50;;;;;;;11.20;5.87;;;;;;;19.58;79.28;100793.42;3614849;79;99057;-85
2022/10/16 15:52:51;;;;;;;9.57;5.37;;;;;;;19.51;79.91;100816.50;3637615;79;31603;-85
2022/10/16 15:57:52;;;;;;;10.47;5.53;;;;;;;19.29;80.45;100818.88;3625783;79;98648;-85
2022/10/16 16:02:54;;;;;;;10.97;6.00;;;;;;;19.13;81.15;100830.53;3623563;81;31742;-86
2022/10/16 16:07:55;;;;;;;8.93;5.03;;;;;;;18.96;81.73;100839.36;3626774;79;99210;-86
2022/10/16 16:12:55;;;;;;;12.43;5.87;;;;;;;18.76;82.36;100841.30;3631976;79;31586;-86
2022/10/16 16:17:56;;;;;;;9.23;5.37;;;;;;;18.57;82.93;100849.54;3625402;81;99046;-87
2022/10/16 16:22:57;;;;;;;11.33;5.67;;;;;;;18.40;83.62;100854.77;3633743;80;31602;-87
2022/10/16 16:27:57;;;;;;;9.88;5.58;;;;;;;18.24;83.98;100866.50;3618929;81;98948;-87
2022/10/16 16:32:58;;;;;;;9.18;5.22;;;;;;;18.08;84.33;100873.27;3620815;81;30820;-87
2022/10/16 16:37:59;;;;;;;10.10;5.80;;;;;;;17.92;84.88;100879.27;3619375;81;98956;-87
2022/10/16 16:43:00;;;;;;;12.50;7.40;;;;;;;17.75;85.25;100891.36;3614135;81;28945;-86
2022/10/16 16:48:01;;;;;;;13.75;7.50;;;;;;;17.58;85.76;100904.86;3621584;79;98690;-87
2022/10/16 16:53:02;;;;;;;12.63;8.03;;;;;;;17.43;86.13;100910.39;3637379;79;32133;-87
2022/10/16 16:58:03;;;;;;;17.83;10.80;;;;;;;17.27;86.56;100925.41;3625526;79;98690;-86
2022/10/16 17:03:04;;;;;;;20.03;11.77;;;;;;;17.10;86.98;100937.44;3631643;79;25912;-86
2022/10/16 17:08:08;;;;;;;18.57;11.83;;;;;;;16.98;87.46;100939.31;3616078;79;98836;-86
2022/10/16 17:13:09;;;;;;;16.73;11.73;;;;;;;16.85;87.81;100947.34;3631140;81;36062;-86
2022/10/16 17:18:10;;;;;;;18.77;11.60;;;;;;;16.73;88.36;100951.98;3620912;81;99265;-86
2022/10/16 17:23:12;;;;;;;19.00;11.33;;;;;;;16.62;88.63;100959.58;3624230;80;29886;-86
2022/10/16 17:28:13;;;;;;;16.50;10.30;;;;;;;16.51;88.83;100960.84;3607767;79;99213;-87
2022/10/16 17:33:14;;;;;;;15.60;9.43;;;;;;;16.40;89.27;100969.83;3638981;79;32646;-87
2022/10/16 17:38:15;;;;;;;17.50;11.47;;;;;;;16.28;89.50;100983.52;3621360;79;99130;-87
2022/10/16 17:43:16;;;;;;;24.37;12.60;;;;;;;16.18;89.79;100982.17;3621365;81;32217;-86
2022/10/16 17:48:17;;;;;;;29.70;16.73;;;;;;;16.07;90.10;100987.73;3624729;81;99358;-86
2022/10/16 17:53:17;;;;;;;28.40;15.87;;;;;;;15.95;90.36;100993.72;3626797;79;28148;-85
2022/10/16 17:58:18;;;;;;;29.10;16.87;;;;;;;15.84;90.70;100991.56;3630048;80;98902;-86
2022/10/16 18:03:19;;;;;;;27.87;17.92;;;;;;;15.73;90.71;101003.27;3627358;79;25779;-86
2022/10/16 18:08:22;;;;;;;25.00;15.83;;;;;;;15.63;90.93;101005.45;3603608;79;99033;-86
2022/10/16 18:13:22;;;;;;;25.62;16.48;;;;;;;15.54;91.24;101016.75;3608733;79;32458;-86
2022/10/16 18:24:27;;;;;;;31.57;18.35;;;;;;;15.33;91.74;101023.08;3584584;80;32448;-85
2022/10/16 18:29:28;;;;;;;22.80;15.67;;;;;;;15.21;91.87;101035.89;3645136;80;98671;-86
2022/10/16 18:34:28;;;;;;;30.00;15.43;;;;;;;15.14;91.99;101053.09;3651417;80;27725;-88
2022/10/16 18:39:29;;;;;;;33.60;19.70;;;;;;;15.03;92.16;101060.02;3652481;80;98759;-87
2022/10/16 18:44:30;;;;;;;31.30;19.77;;;;;;;14.94;92.46;101069.89;3651436;80;26461;-87
2022/10/16 18:49:31;;;;;;;28.17;18.93;;;;;;;14.86;92.53;101082.11;3647435;80;98731;-87
2022/10/16 18:54:32;;;;;;;28.90;18.33;;;;;;;14.78;92.85;101087.44;3642397;80;26183;-87
2022/10/16 18:59:33;;;;;;;28.13;17.57;;;;;;;14.67;92.61;101088.75;3642850;80;98787;-87
2022/10/16 19:04:33;;;;;;;28.80;17.55;;;;;;;14.60;93.19;101102.58;3638432;80;26433;-85
2022/10/16 19:09:39;;;;;;;28.00;17.40;;;;;;;14.52;93.33;101106.50;3638105;80;99132;-85
2022/10/16 19:14:40;;;;;;;25.87;16.60;;;;;;;14.45;93.34;101118.13;3651033;80;31609;-87
2022/10/16 19:19:41;;;;;;;26.53;16.80;;;;;;;14.37;93.50;101120.63;3635933;79;99049;-87
2022/10/16 19:24:43;;;;;;;25.43;17.70;;;;;;;14.28;93.72;101118.20;3638289;79;33387;-87
2022/10/16 19:29:44;;;;;;;30.68;18.98;;;;;;;14.22;93.84;101114.20;3635703;79;99155;-87
2022/10/16 19:34:50;;;;;;;33.97;20.00;;;;;;;14.15;94.05;101112.75;3642617;78;32978;-87
2022/10/16 19:39:50;;;;;;;41.27;25.67;;;;;;;14.09;94.13;101116.25;3641664;78;98769;-86
2022/10/16 19:44:51;;;;;;;48.87;26.93;;;;;;;14.04;94.25;101124.33;3646528;78;32947;-87
2022/10/16 19:49:55;;;;;;;44.90;24.87;;;;;;;13.98;94.31;101128.63;3630753;79;99294;-87
2022/10/16 19:54:58;;;;;;;35.10;21.10;;;;;;;13.93;94.58;101130.94;3510982;82;25916;-87
2022/10/16 19:59:59;;;;;;;39.83;22.40;;;;;;;13.87;94.52;101128.33;3636601;79;99014;-85
2022/10/16 20:05:03;;;;;;;34.23;18.67;;;;;;;13.81;94.69;101128.47;3618041;78;32987;-84
2022/10/16 20:10:11;;;;;;;32.65;18.82;;;;;;;13.74;94.76;101136.10;3643459;79;98919;-84
2022/10/16 20:15:12;;;;;;;32.42;19.50;;;;;;;13.68;94.87;101143.77;3642691;78;26517;-85
2022/10/16 20:20:13;;;;;;;25.93;16.83;;;;;;;13.64;95.03;101151.23;3651441;80;98764;-86
2022/10/16 20:25:14;;;;;;;27.10;17.43;;;;;;;13.59;94.98;101160.67;3648325;80;33204;-85
2022/10/16 20:30:15;;;;;;;24.43;15.80;;;;;;;13.54;95.24;101172.66;3652596;80;99193;-85
2022/10/16 20:35:16;;;;;;;23.80;14.83;;;;;;;13.49;95.17;101179.90;3656801;80;32985;-86
2022/10/16 20:40:16;;;;;;;24.07;15.27;;;;;;;13.42;95.25;101181.22;3654875;80;99674;-82
2022/10/16 20:45:17;;;;;;;24.37;13.47;;;;;;;13.35;95.30;101184.68;3648750;80;33699;-84
2022/10/16 20:50:18;;;;;;;21.97;12.53;;;;;;;13.30;95.49;101203.59;3656242;80;99060;-84
2022/10/16 20:55:19;;;;;;;23.80;11.95;;;;;;;13.25;95.57;101211.61;3665725;80;32921;-83
2022/10/16 21:00:20;;;;;;;21.73;12.60;;;;;;;13.20;95.51;101204.25;3647047;80;99063;-84
2022/10/16 21:05:20;;;;;;;18.00;10.57;;;;;;;13.14;95.60;101206.53;3662349;80;30054;-84
2022/10/16 21:10:22;;;;;;;19.20;10.10;;;;;;;13.07;95.47;101202.30;3653193;80;99196;-84
2022/10/16 21:15:23;;;;;;;19.43;10.90;;;;;;;12.98;95.46;101199.61;3654590;80;32093;-84
2022/10/16 21:20:23;;;;;;;18.70;10.93;;;;;;;12.90;95.86;101202.83;3641497;80;99106;-84
2022/10/16 21:25:25;;;;;;;14.73;9.23;;;;;;;12.82;96.10;101222.44;3647386;80;31750;-84
2022/10/16 21:30:26;;;;;;;18.30;10.60;;;;;;;12.77;96.78;101231.86;3647712;80;98787;-83
2022/10/16 21:35:26;;;;;;;18.85;11.18;;;;;;;12.78;96.69;101243.11;3641672;80;31644;-84
2022/10/16 21:40:28;;;;;;;28.03;13.87;;;;;;;12.73;96.74;101242.62;3628367;80;99149;-84
2022/10/16 21:45:32;;;;;;;23.10;13.23;;;;;;;12.70;96.91;101240.62;3650213;80;31536;-84
2022/10/16 21:50:33;;;;;;;27.23;16.60;;;;;;;12.70;96.80;101242.00;3650207;80;99284;-84
2022/10/16 21:55:36;;;;;;;25.33;16.40;;;;;;;12.62;96.60;101239.70;3654011;80;32262;-84
2022/10/16 22:00:36;;;;;;;22.98;15.50;;;;;;;12.58;97.28;101244.94;3630899;80;98633;-84
2022/10/16 22:05:37;;;;;;;23.13;14.73;;;;;;;12.57;97.88;101244.16;3617307;80;31583;-84
2022/10/16 22:10:38;;;;;;;23.87;15.85;;;;;;;12.58;97.76;101253.22;3666703;80;98685;-84
2022/10/16 22:15:50;;;;;;;25.33;15.70;;;;;;;12.57;97.84;101255.78;3663963;79;31595;-84
2022/10/16 22:20:51;;;;;;;21.77;15.13;;;;;;;12.59;97.94;101270.81;3627530;79;99620;-84
2022/10/16 22:26:03;;;;;;;26.20;16.20;;;;;;;12.60;97.90;101271.62;3613978;79;31763;-84
2022/10/16 22:31:09;;;;;;;25.35;15.98;;;;;;;12.56;97.75;101274.33;3626142;79;99056;-84
2022/10/16 22:36:13;;;;;;;26.42;17.57;;;;;;;12.55;97.98;101278.83;3626666;81;99411;-84
2022/10/16 22:41:14;;;;;;;26.33;16.57;;;;;;;12.54;98.20;101286.30;3641924;79;31402;-84
2022/10/16 22:46:25;;;;;;;25.30;17.00;;;;;;;12.57;98.39;101286.16;3630582;79;99275;-84
2022/10/16 22:51:26;;;;;;;24.15;16.45;;;;;;;12.61;98.42;101297.49;3633636;80;33027;-84
2022/10/16 22:56:27;;;;;;;23.65;15.68;;;;;;;12.66;98.54;101299.14;3625242;80;99026;-83
2022/10/16 23:01:36;;;;;;;27.33;17.93;;;;;;;12.69;98.44;101294.23;3610612;80;32441;-84
2022/10/16 23:06:36;;;;;;;23.83;15.72;;;;;;;12.70;98.89;101291.11;3615237;81;98894;-83
2022/10/16 23:11:38;;;;;;;25.70;17.87;;;;;;;12.74;98.97;101296.12;3611684;81;32275;-83
2022/10/16 23:16:38;;;;;;;23.60;16.17;;;;;;;12.80;99.15;101291.09;3605120;80;98844;-83
2022/10/16 23:21:39;;;;;;;21.03;15.17;;;;;;;12.84;99.19;101289.97;3640582;80;32300;-84